PTPN

Pohnpei International Airport

Airport
ICAO code
PTPN
IATA Code
PNI
Summary
ICAO Region
APAC
Location

Dekehtik, Pohnpei

Serving
Pohnpei Island
Elevation
10 ft
Coordinates
6° 58' 41" N , 158° 12' 25" E
KCC
Metar
Observation
PTPN 262154Z 05003KT 15SM SCT018 BKN130 BKN300 29/25 A2983 RMK FIRST
Station
Pohnpei Island, Pohnpei Int. Airp.
Date/Time
2022-09-26 21:54:00
Wind direction
50°
Wind speed
03 kts
Lowest cloud amount
scattered clouds
Temperature
29°C
Dew point
25°C
Humidity
79%
Weather condition
n/a

Pohnpei International Airport is an airport located on Pohnpei Island (formerly Ponape), the main island of Pohnpei State.

Climatology

Tropical rainforest climate (Köppen climate classification Af)

Runways

Designator Length Width Surface Rops
9/27 1829 46 ASP Yes/Yes

Airport map

Aerial View

SKYbrary Partners:

Safety knowledge contributed by: